Terminal Aerodrome Forecast
Issued by NWS

Home | Current Version | Previous Version | Text Only | Print | Product List | Glossary On
Versions: 1 2 3 4 5 6 7 8 9 10 11 12 13 14 15 16 17 18 19 20 21 22 23 24 25 26 27 28 29 30 31
060
FTUS43 KDLH 231503 AAB
TAFHIB
TAF AMD
KHIB 231503Z 2315/2412 04006KT P6SM VCSH SCT014 OVC070
     FM231530 03009KT P6SM VCSH BKN008
     FM231800 03011G17KT P6SM VCSH BKN025
     FM232100 03011G17KT P6SM VCSH BKN035
     FM240000 03007KT P6SM SCT015 BKN040
     FM240900 01004KT 4SM BR SCT005=

USA.gov is the U.S. government's official web portal to all federal, state and local government web resources and services.